This is the latest recevied weather packets stored in our database for station/object KG7BDA. If no packets are shown the sender has not sent any weather packets the latest 1 day(s).
| Time | Temp. | Humidity | Pressure | Rain* | Wind** | Luminosity | Snow |
|---|---|---|---|---|---|---|---|
| 1778108244 | 22.78° C | 31% | 1017.3 hPa | 0 mm | - | - | - |
| 1778107163 | 22.78° C | 31% | 1017.8 hPa | 0 mm | - | - | - |
| 1778106083 | 22.22° C | 31% | 1018 hPa | 0 mm | - | - | - |
| 1778103563 | 21.67° C | 32% | 1018.7 hPa | 0 mm | - | - | - |
| 1778102483 | 21.11° C | 30% | 1019.1 hPa | 0 mm | - | - | - |
| 1778101043 | 21.11° C | 28% | 1019.1 hPa | 0 mm | - | - | - |
| 1778098523 | 20.56° C | 28% | 1019.3 hPa | 0 mm | - | - | - |
| 1778098163 | 20° C | 27% | 1019.4 hPa | 0 mm | - | - | - |
| 1778096723 | 19.44° C | 28% | 1019.7 hPa | 0 mm | - | - | - |
| 1778095723 | 18.89° C | 28% | 1020.1 hPa | 0 mm | - | - | - |
| 1778093843 | 18.33° C | 29% | 1020.4 hPa | 0 mm | - | - | - |
| 1778093483 | 17.78° C | 27% | 1020.6 hPa | 0 mm | - | - | - |
| 1778092043 | 17.22° C | 28% | 1020.8 hPa | 0 mm | - | - | - |
| 1778090243 | 16.67° C | 28% | 1021.1 hPa | 0 mm | - | - | - |
| 1778089883 | 16.67° C | 29% | 1021 hPa | 0 mm | - | - | - |
| 1778088083 | 15.56° C | 29% | 1020.8 hPa | 0 mm | - | - | - |
| 1778087723 | 15.56° C | 30% | 1020.9 hPa | 0 mm | - | - | - |
| 1778087363 | 15.56° C | 30% | 1020.8 hPa | 0 mm | - | - | - |
| 1778084123 | 13.89° C | 31% | 1020.9 hPa | 0 mm | - | - | - |
| 1778082322 | 12.78° C | 32% | 1020.9 hPa | 0 mm | - | - | - |
| 1778080522 | 12.22° C | 37% | 1020.6 hPa | 0 mm | - | - | - |
| 1778077643 | 10° C | 45% | 1020.5 hPa | 0 mm | - | - | - |
| 1778077282 | 10° C | 46% | 1020.4 hPa | 0 mm | - | - | - |
| 1778076923 | 9.44° C | 50% | 1020.3 hPa | 0 mm | - | - | - |
| 1778076562 | 8.89° C | 51% | 1020.3 hPa | 0 mm | - | - | - |
* Rain latest hour (hover to see other rain measurements)
** Current wind speed in m/s (hover to see current wind gust speed)